Time;durP1;ratioP1;P1;durP2;ratioP2;P2;SDS_P1;SDS_P2;PMS_P1;PMS_P2;Temp;Humidity;BMP_temperature;BMP_pressure;BME280_temperature;BME280_humidity;BME280_pressure;Samples;Min_cycle;Max_cycle;Signal;HPM_P1;HPM_P2
2024/01/04 00:00:04;;;;;;;4.32;3.10;;;2.20;69.00;;;;;;5042555;28;20033;-85
2024/01/04 00:02:31;;;;;;;4.82;3.10;;;2.20;69.20;;;;;;5022410;28;20488;-82
2024/01/04 00:04:58;;;;;;;6.35;3.10;;;2.10;69.00;;;;;;5011214;28;20436;-83
2024/01/04 00:07:25;;;;;;;5.57;2.90;;;2.20;68.90;;;;;;5040462;28;20496;-83
2024/01/04 00:09:53;;;;;;;5.05;3.05;;;2.20;69.30;;;;;;5028580;28;20478;-84
2024/01/04 00:12:19;;;;;;;7.97;3.60;;;2.10;69.30;;;;;;5008324;28;20029;-83
2024/01/04 00:14:45;;;;;;;5.10;3.30;;;2.10;69.20;;;;;;5028697;28;20032;-82
2024/01/04 00:17:11;;;;;;;5.95;3.50;;;2.10;69.30;;;;;;5039898;28;20431;-81
2024/01/04 00:19:38;;;;;;;5.80;3.13;;;2.10;69.10;;;;;;5039843;28;20065;-82
2024/01/04 00:22:04;;;;;;;5.07;3.20;;;2.10;69.10;;;;;;5008306;28;20396;-81
2024/01/04 00:24:29;;;;;;;4.68;3.22;;;2.10;69.20;;;;;;5014201;28;20033;-82
2024/01/04 00:26:56;;;;;;;5.40;3.17;;;2.10;69.00;;;;;;5041585;28;20037;-82
2024/01/04 00:29:21;;;;;;;9.00;3.60;;;2.10;68.90;;;;;;5012166;28;20781;-81
2024/01/04 00:31:48;;;;;;;5.07;3.20;;;2.10;69.00;;;;;;5023980;28;20116;-81
2024/01/04 00:34:14;;;;;;;9.30;3.55;;;2.00;69.00;;;;;;5026579;28;20099;-81
2024/01/04 00:36:40;;;;;;;5.50;3.08;;;2.00;69.30;;;;;;5018950;28;20628;-81
2024/01/04 00:39:06;;;;;;;6.18;3.10;;;2.00;69.30;;;;;;5044175;28;20060;-80
2024/01/04 00:41:32;;;;;;;5.35;2.95;;;2.00;69.50;;;;;;5034027;28;20026;-80
2024/01/04 00:43:59;;;;;;;5.05;3.80;;;2.00;69.70;;;;;;5028969;28;20037;-81
2024/01/04 00:46:25;;;;;;;9.27;3.78;;;2.00;69.70;;;;;;5024702;28;20467;-80
2024/01/04 00:48:51;;;;;;;6.00;3.28;;;2.00;69.60;;;;;;5032184;28;20061;-81
2024/01/04 00:51:17;;;;;;;7.18;4.20;;;2.00;69.80;;;;;;5042602;28;20098;-81
2024/01/04 00:53:43;;;;;;;6.35;3.50;;;2.00;69.80;;;;;;5023244;28;20044;-80
2024/01/04 00:56:10;;;;;;;5.40;3.28;;;2.10;69.80;;;;;;5010385;28;20040;-81
2024/01/04 00:58:36;;;;;;;6.35;3.53;;;2.00;69.60;;;;;;5030020;28;20337;-83
2024/01/04 01:01:05;;;;;;;5.32;3.42;;;2.10;69.50;;;;;;5025469;28;20064;-81
2024/01/04 01:03:32;;;;;;;6.97;3.67;;;2.10;69.40;;;;;;5030202;28;20037;-82
2024/01/04 01:05:58;;;;;;;6.03;3.53;;;2.10;69.40;;;;;;5046981;28;20032;-84
2024/01/04 01:08:27;;;;;;;5.15;3.22;;;2.10;69.50;;;;;;5029053;28;20086;-82
2024/01/04 01:10:53;;;;;;;4.75;2.97;;;2.10;69.40;;;;;;5023558;28;20034;-82
2024/01/04 01:13:22;;;;;;;5.38;3.20;;;2.10;69.30;;;;;;5009881;28;20091;-79
2024/01/04 01:15:48;;;;;;;4.78;3.15;;;2.10;69.40;;;;;;4996235;28;20044;-79
2024/01/04 01:18:14;;;;;;;9.25;4.50;;;2.10;69.40;;;;;;5014131;28;20492;-80
2024/01/04 01:20:40;;;;;;;5.53;3.45;;;2.00;69.50;;;;;;5029666;28;20037;-79
2024/01/04 01:23:06;;;;;;;4.65;3.10;;;2.10;69.50;;;;;;5042546;28;20037;-80
2024/01/04 01:25:33;;;;;;;7.15;3.63;;;2.00;69.40;;;;;;5032671;28;20385;-80
2024/01/04 01:27:59;;;;;;;7.53;3.40;;;2.10;69.70;;;;;;5030805;28;20105;-80
2024/01/04 01:30:25;;;;;;;7.72;3.45;;;2.00;69.60;;;;;;5034327;28;20094;-80
2024/01/04 01:32:51;;;;;;;5.28;3.80;;;2.00;69.60;;;;;;5024861;28;20072;-80
2024/01/04 01:35:18;;;;;;;5.05;3.33;;;2.00;69.30;;;;;;5025020;28;20468;-81
2024/01/04 01:37:44;;;;;;;5.40;3.55;;;2.00;69.30;;;;;;5017838;28;20032;-80
2024/01/04 01:40:10;;;;;;;6.60;4.28;;;2.00;69.00;;;;;;5023940;28;20030;-81
2024/01/04 01:42:36;;;;;;;5.50;3.33;;;2.00;68.80;;;;;;5030744;28;20061;-81
2024/01/04 01:45:03;;;;;;;6.05;3.42;;;2.00;68.70;;;;;;5007971;28;20500;-81
2024/01/04 01:47:31;;;;;;;5.40;3.47;;;2.00;68.70;;;;;;5024772;28;20029;-80
2024/01/04 01:49:57;;;;;;;7.50;3.35;;;2.00;68.60;;;;;;5026456;28;20060;-81
2024/01/04 01:52:24;;;;;;;5.32;3.35;;;2.00;68.60;;;;;;5043543;28;20419;-80
2024/01/04 01:54:51;;;;;;;6.70;3.60;;;2.00;68.60;;;;;;5039895;28;20499;-81
2024/01/04 01:57:17;;;;;;;5.22;3.47;;;2.00;68.50;;;;;;5012163;28;20049;-80
2024/01/04 01:59:44;;;;;;;8.85;4.03;;;1.90;68.60;;;;;;5025934;28;20072;-81
2024/01/04 02:02:11;;;;;;;6.55;3.75;;;1.90;68.70;;;;;;5027895;28;20487;-81
2024/01/04 02:04:37;;;;;;;5.53;3.40;;;1.90;68.80;;;;;;5041786;28;20547;-81
2024/01/04 02:07:03;;;;;;;5.75;3.53;;;1.90;68.80;;;;;;5042478;28;20042;-80
2024/01/04 02:09:29;;;;;;;6.68;3.30;;;1.90;68.60;;;;;;5049063;28;20100;-80
2024/01/04 02:12:05;;;;;;;5.88;3.45;;;1.90;68.60;;;;;;5033357;28;20043;-81
2024/01/04 02:14:32;;;;;;;5.15;2.88;;;1.90;68.60;;;;;;5031509;28;20042;-81
2024/01/04 02:16:59;;;;;;;7.50;3.00;;;1.90;69.50;;;;;;5029663;28;20036;-81
2024/01/04 02:19:26;;;;;;;8.55;4.00;;;1.90;69.10;;;;;;5032268;28;20132;-81
2024/01/04 02:21:52;;;;;;;6.80;3.15;;;1.90;69.10;;;;;;5027421;28;20033;-81
2024/01/04 02:24:18;;;;;;;4.30;3.40;;;2.00;69.00;;;;;;5027930;28;20396;-81
2024/01/04 02:26:44;;;;;;;5.03;3.25;;;2.00;68.80;;;;;;5012646;28;20043;-81
2024/01/04 02:29:10;;;;;;;4.97;3.47;;;2.00;69.00;;;;;;5044321;28;20041;-81
2024/01/04 02:31:36;;;;;;;6.47;3.40;;;2.00;68.90;;;;;;5010316;28;20471;-81
2024/01/04 02:34:02;;;;;;;5.50;3.55;;;2.00;68.70;;;;;;5027543;28;20131;-80
2024/01/04 02:36:28;;;;;;;7.40;3.65;;;2.00;69.10;;;;;;5030747;28;20025;-82
2024/01/04 02:38:54;;;;;;;6.05;3.63;;;2.00;69.10;;;;;;5029149;28;20039;-81
2024/01/04 02:41:20;;;;;;;5.63;3.50;;;2.00;69.20;;;;;;5016365;28;20458;-81
2024/01/04 02:43:47;;;;;;;3.88;2.72;;;2.00;69.20;;;;;;5043694;28;20103;-81
2024/01/04 02:46:13;;;;;;;6.07;3.15;;;2.00;69.00;;;;;;5043481;28;20030;-81
2024/01/04 02:48:39;;;;;;;5.35;3.40;;;2.00;69.20;;;;;;5012069;28;20051;-80
2024/01/04 02:51:04;;;;;;;4.85;3.00;;;2.00;69.10;;;;;;5026748;28;20038;-81
2024/01/04 02:53:30;;;;;;;5.40;3.10;;;2.00;69.00;;;;;;5017893;28;20086;-82
2024/01/04 02:55:57;;;;;;;5.65;3.28;;;2.00;69.10;;;;;;5015248;28;20029;-82
2024/01/04 02:58:23;;;;;;;5.82;3.35;;;2.00;69.30;;;;;;5023851;28;20064;-82
2024/01/04 03:00:49;;;;;;;5.82;3.20;;;2.00;69.40;;;;;;5043165;28;20040;-83
2024/01/04 03:03:15;;;;;;;6.03;3.20;;;2.00;69.60;;;;;;5030876;28;20399;-80
2024/01/04 03:05:41;;;;;;;5.30;2.83;;;2.00;69.60;;;;;;5041727;28;20033;-81
2024/01/04 03:08:07;;;;;;;6.43;3.70;;;2.00;69.40;;;;;;5029789;28;20064;-81
2024/01/04 03:10:33;;;;;;;4.70;3.20;;;2.00;69.20;;;;;;5029193;28;20447;-81
2024/01/04 03:12:59;;;;;;;5.15;3.40;;;2.00;69.30;;;;;;5045082;28;20029;-82
2024/01/04 03:15:25;;;;;;;5.57;3.45;;;2.00;69.10;;;;;;5043010;28;20029;-81
2024/01/04 03:17:50;;;;;;;4.63;2.88;;;2.00;69.00;;;;;;5042022;28;20099;-82
2024/01/04 03:20:16;;;;;;;5.55;3.38;;;2.00;68.80;;;;;;5028415;28;20094;-81
2024/01/04 03:22:42;;;;;;;6.07;3.20;;;2.00;68.70;;;;;;5015043;28;20041;-81
2024/01/04 03:25:10;;;;;;;4.70;3.30;;;2.00;68.80;;;;;;5028711;28;20087;-82
2024/01/04 03:27:36;;;;;;;5.55;3.00;;;1.90;68.80;;;;;;5025703;28;20040;-81
2024/01/04 03:30:04;;;;;;;5.13;3.00;;;1.90;68.70;;;;;;5031357;28;20459;-81
2024/01/04 03:32:30;;;;;;;4.65;3.40;;;1.90;68.80;;;;;;5040580;28;20088;-81
2024/01/04 03:34:56;;;;;;;5.63;3.15;;;1.90;68.80;;;;;;5008700;28;20124;-82
2024/01/04 03:37:22;;;;;;;6.15;3.13;;;1.90;68.60;;;;;;5014554;28;20057;-81
2024/01/04 03:39:49;;;;;;;4.68;3.13;;;1.90;68.60;;;;;;5021964;28;20116;-82
2024/01/04 03:42:15;;;;;;;5.57;3.40;;;1.90;68.40;;;;;;5007637;28;20036;-80
2024/01/04 03:44:44;;;;;;;4.68;3.38;;;1.90;68.40;;;;;;5026943;28;20028;-81
2024/01/04 03:47:11;;;;;;;4.57;2.70;;;1.90;68.30;;;;;;5024519;28;20045;-80
2024/01/04 03:49:37;;;;;;;4.85;3.22;;;2.00;68.40;;;;;;5014100;28;20480;-81
2024/01/04 03:52:03;;;;;;;3.25;2.47;;;2.00;68.50;;;;;;5008670;28;20041;-81
2024/01/04 03:54:29;;;;;;;4.25;2.65;;;1.90;68.40;;;;;;5031419;28;20036;-81
2024/01/04 03:56:55;;;;;;;6.88;3.50;;;1.90;68.40;;;;;;5038897;28;20419;-81
2024/01/04 03:59:21;;;;;;;6.03;3.40;;;2.00;68.30;;;;;;5031224;28;20064;-81
2024/01/04 04:01:48;;;;;;;5.25;3.45;;;2.00;68.10;;;;;;5026592;28;20533;-81
2024/01/04 04:04:14;;;;;;;5.65;3.38;;;2.00;68.40;;;;;;5039704;28;20094;-81
2024/01/04 04:06:40;;;;;;;5.03;3.30;;;2.00;68.60;;;;;;5043655;28;20052;-81
2024/01/04 04:09:07;;;;;;;5.65;3.05;;;2.00;68.40;;;;;;5013300;28;20035;-81
2024/01/04 04:11:34;;;;;;;5.88;3.08;;;2.00;68.60;;;;;;5012334;28;20063;-81
2024/01/04 04:14:00;;;;;;;6.00;3.30;;;2.00;68.70;;;;;;5013664;28;20044;-80
2024/01/04 04:16:26;;;;;;;5.43;3.45;;;1.90;68.40;;;;;;5014957;28;20037;-81
2024/01/04 04:18:52;;;;;;;6.13;3.30;;;1.90;68.50;;;;;;5048326;28;20036;-81
2024/01/04 04:21:19;;;;;;;5.38;3.53;;;1.90;68.50;;;;;;5024805;28;20033;-80
2024/01/04 04:23:49;;;;;;;6.53;3.42;;;2.00;68.50;;;;;;5012594;28;20630;-82
2024/01/04 04:26:22;;;;;;;7.50;3.60;;;2.00;68.70;;;;;;5013239;28;20037;-81
2024/01/04 04:28:51;;;;;;;4.82;3.30;;;2.00;68.70;;;;;;5023716;28;20406;-81
2024/01/04 04:31:19;;;;;;;5.75;3.60;;;2.00;68.60;;;;;;5024973;28;20522;-81
2024/01/04 04:33:46;;;;;;;6.93;3.75;;;2.00;68.60;;;;;;5038729;28;20055;-81
2024/01/04 04:36:12;;;;;;;4.60;2.92;;;2.00;68.50;;;;;;5023990;28;20499;-82
2024/01/04 04:38:38;;;;;;;6.22;3.13;;;2.00;68.60;;;;;;5009751;28;20033;-82
2024/01/04 04:41:06;;;;;;;5.97;3.40;;;2.00;68.70;;;;;;5041049;28;20069;-81
2024/01/04 04:43:32;;;;;;;7.15;3.55;;;2.00;68.60;;;;;;5011842;28;20083;-81
2024/01/04 04:45:58;;;;;;;6.47;3.67;;;2.00;68.50;;;;;;5040424;28;20045;-81
2024/01/04 04:48:25;;;;;;;4.50;3.30;;;2.00;68.50;;;;;;5039935;28;20488;-81
2024/01/04 04:50:53;;;;;;;5.22;3.10;;;2.00;68.50;;;;;;5030971;28;20040;-81
2024/01/04 04:53:19;;;;;;;5.35;3.25;;;1.90;68.80;;;;;;4997312;28;20030;-81
2024/01/04 04:55:45;;;;;;;5.60;3.50;;;2.00;69.00;;;;;;5008504;28;20108;-81
2024/01/04 04:58:11;;;;;;;5.78;3.80;;;1.90;69.00;;;;;;5045977;28;20056;-82
2024/01/04 05:00:37;;;;;;;8.38;3.35;;;1.90;68.90;;;;;;5040164;28;20033;-82
2024/01/04 05:03:04;;;;;;;4.32;3.22;;;1.90;69.20;;;;;;5021617;28;20033;-82
2024/01/04 05:05:30;;;;;;;5.32;3.10;;;1.90;69.70;;;;;;5026342;28;20028;-82
2024/01/04 05:07:56;;;;;;;5.05;3.28;;;2.00;69.20;;;;;;5006811;28;20052;-82
2024/01/04 05:10:22;;;;;;;5.15;3.20;;;2.00;69.40;;;;;;5024033;28;20086;-81
2024/01/04 05:12:49;;;;;;;5.28;3.17;;;2.00;68.80;;;;;;5031648;28;20111;-81
2024/01/04 05:15:15;;;;;;;7.03;3.17;;;2.00;68.70;;;;;;5009174;28;20033;-81
2024/01/04 05:17:41;;;;;;;4.60;3.25;;;1.90;68.40;;;;;;5039494;28;20065;-81
2024/01/04 05:20:07;;;;;;;4.20;2.90;;;2.00;68.30;;;;;;5040449;28;20563;-81
2024/01/04 05:22:33;;;;;;;7.03;3.15;;;1.90;68.40;;;;;;5026942;28;20037;-80
2024/01/04 05:24:59;;;;;;;4.35;3.10;;;1.90;68.20;;;;;;5043659;28;20037;-80
2024/01/04 05:27:25;;;;;;;6.40;3.13;;;1.90;68.40;;;;;;5028155;28;20048;-80
2024/01/04 05:29:51;;;;;;;5.05;3.30;;;1.90;68.20;;;;;;5044132;28;20038;-79
2024/01/04 05:32:18;;;;;;;6.38;3.38;;;1.90;68.00;;;;;;5030158;28;20072;-79
2024/01/04 05:34:44;;;;;;;4.30;2.83;;;1.90;68.00;;;;;;5027659;28;20455;-79
2024/01/04 05:37:10;;;;;;;5.85;3.25;;;1.90;68.10;;;;;;5032439;28;20086;-80
2024/01/04 05:39:36;;;;;;;4.20;2.92;;;2.00;68.20;;;;;;5045868;28;20033;-80
2024/01/04 05:42:02;;;;;;;7.55;3.67;;;2.00;68.20;;;;;;5033148;28;20453;-80
2024/01/04 05:44:28;;;;;;;5.30;3.35;;;2.00;68.20;;;;;;5045069;28;20043;-80
2024/01/04 05:46:54;;;;;;;6.20;3.47;;;2.00;68.10;;;;;;5047005;28;20034;-80
2024/01/04 05:49:20;;;;;;;4.13;2.70;;;2.00;68.40;;;;;;5016310;28;20029;-80
2024/01/04 05:51:46;;;;;;;4.63;3.33;;;2.00;68.30;;;;;;5043377;28;20052;-80
2024/01/04 05:54:12;;;;;;;6.00;3.17;;;2.00;68.40;;;;;;5042306;28;20124;-80
2024/01/04 05:56:39;;;;;;;6.68;3.28;;;2.00;68.10;;;;;;5033516;28;20037;-80
2024/01/04 05:59:07;;;;;;;5.97;3.13;;;2.00;68.20;;;;;;5042238;28;20061;-80
2024/01/04 06:01:33;;;;;;;5.78;3.17;;;2.00;68.20;;;;;;5029744;28;20045;-81
2024/01/04 06:04:00;;;;;;;5.07;3.17;;;2.00;68.30;;;;;;5009697;28;20033;-81
2024/01/04 06:06:26;;;;;;;6.10;3.53;;;2.00;68.60;;;;;;5016147;28;20041;-81
2024/01/04 06:08:52;;;;;;;5.28;3.63;;;2.00;68.30;;;;;;5044150;28;20035;-82
2024/01/04 06:11:18;;;;;;;5.78;3.03;;;2.00;68.40;;;;;;5030527;28;20037;-82
2024/01/04 06:13:44;;;;;;;5.57;3.33;;;2.00;68.40;;;;;;5025697;28;20256;-80
2024/01/04 06:16:10;;;;;;;4.75;3.20;;;2.00;68.30;;;;;;5016495;28;20419;-82
2024/01/04 06:18:37;;;;;;;5.75;3.38;;;2.00;68.30;;;;;;5045858;28;20033;-82
2024/01/04 06:21:05;;;;;;;6.78;3.35;;;2.00;68.30;;;;;;5041649;28;20134;-81
2024/01/04 06:23:31;;;;;;;5.78;3.67;;;2.00;68.30;;;;;;5031429;28;20029;-80
2024/01/04 06:25:57;;;;;;;5.88;3.15;;;2.00;68.50;;;;;;5026157;28;20041;-81
2024/01/04 06:28:24;;;;;;;4.63;2.92;;;2.00;68.50;;;;;;5033087;28;20071;-81
2024/01/04 06:30:50;;;;;;;5.22;3.30;;;2.00;68.60;;;;;;5016921;28;20033;-81
2024/01/04 06:33:17;;;;;;;7.10;3.38;;;2.00;68.50;;;;;;5041526;28;20041;-80
2024/01/04 06:35:43;;;;;;;5.18;3.67;;;2.00;68.10;;;;;;5014244;28;21012;-80
2024/01/04 06:38:09;;;;;;;6.03;3.22;;;2.00;68.20;;;;;;5032219;28;20083;-81
2024/01/04 06:40:36;;;;;;;4.88;3.60;;;2.00;68.20;;;;;;5042063;28;20092;-81
2024/01/04 06:43:03;;;;;;;5.68;3.55;;;2.00;68.80;;;;;;5042450;28;20060;-81
2024/01/04 06:45:30;;;;;;;8.30;3.95;;;2.00;68.40;;;;;;5043784;28;20369;-82
2024/01/04 06:47:56;;;;;;;10.18;3.90;;;2.00;67.90;;;;;;5031952;28;20029;-82
2024/01/04 06:50:22;;;;;;;8.00;3.85;;;2.00;67.00;;;;;;5000199;28;20075;-82
2024/01/04 06:52:49;;;;;;;6.93;3.83;;;2.00;66.00;;;;;;4992396;28;20096;-84
2024/01/04 06:55:15;;;;;;;6.05;4.10;;;2.00;65.70;;;;;;5007951;28;20065;-83
2024/01/04 06:57:42;;;;;;;7.07;4.43;;;2.00;65.40;;;;;;4992537;28;20038;-83
2024/01/04 07:00:08;;;;;;;5.93;4.05;;;2.00;65.30;;;;;;4992750;28;20460;-83
2024/01/04 07:02:35;;;;;;;6.30;4.28;;;2.00;65.40;;;;;;5027126;28;20384;-81
2024/01/04 07:05:06;;;;;;;6.53;4.00;;;2.00;65.10;;;;;;5027636;28;20574;-81
2024/01/04 07:07:36;;;;;;;5.93;3.80;;;1.90;65.10;;;;;;5011281;28;20392;-81
2024/01/04 07:10:03;;;;;;;6.95;4.28;;;1.90;65.00;;;;;;5033285;28;20129;-82
2024/01/04 07:12:29;;;;;;;7.38;4.45;;;2.00;65.00;;;;;;5000121;28;20041;-82
2024/01/04 07:14:55;;;;;;;7.95;4.25;;;1.90;64.80;;;;;;5013419;28;20132;-83
2024/01/04 07:17:23;;;;;;;6.28;4.18;;;1.90;64.70;;;;;;5020255;28;20122;-84
2024/01/04 07:19:49;;;;;;;7.25;4.55;;;1.90;64.60;;;;;;5020720;28;20030;-84
2024/01/04 07:22:16;;;;;;;7.88;5.00;;;1.90;64.50;;;;;;5014320;28;20072;-88
2024/01/04 07:24:43;;;;;;;5.72;3.42;;;1.90;67.00;;;;;;5021050;28;20615;-85
2024/01/04 07:27:10;;;;;;;6.93;3.80;;;2.00;67.20;;;;;;5024040;28;20065;-86
2024/01/04 07:29:37;;;;;;;6.60;3.78;;;2.00;67.30;;;;;;5025408;28;20033;-85
2024/01/04 07:32:03;;;;;;;8.18;4.00;;;2.00;66.50;;;;;;5024680;28;20034;-83
2024/01/04 07:34:41;;;;;;;6.63;4.47;;;2.00;65.60;;;;;;5019527;28;20064;-82
2024/01/04 07:37:10;;;;;;;7.65;4.45;;;2.00;65.00;;;;;;4989270;28;20039;-84
2024/01/04 07:39:36;;;;;;;5.88;3.80;;;2.00;64.80;;;;;;5020934;28;20026;-84
2024/01/04 07:42:02;;;;;;;6.63;4.10;;;1.90;64.50;;;;;;5020244;28;20092;-85
2024/01/04 07:44:29;;;;;;;6.82;4.00;;;1.90;64.20;;;;;;5019932;28;20507;-83
2024/01/04 07:46:55;;;;;;;8.02;4.03;;;1.90;64.10;;;;;;5020717;28;20033;-84
2024/01/04 07:49:21;;;;;;;5.88;3.83;;;1.90;64.10;;;;;;5020986;28;20057;-86
2024/01/04 07:51:47;;;;;;;6.13;4.20;;;2.00;63.90;;;;;;5020880;28;20061;-84
2024/01/04 07:54:14;;;;;;;7.45;4.35;;;1.90;63.80;;;;;;5005618;28;20499;-85
2024/01/04 07:56:40;;;;;;;6.93;4.05;;;2.00;63.90;;;;;;5007009;28;20087;-85
2024/01/04 07:59:06;;;;;;;6.07;4.10;;;2.00;63.70;;;;;;5013745;28;20130;-77
2024/01/04 08:01:32;;;;;;;6.85;4.03;;;1.90;63.80;;;;;;5013715;28;20037;-80
2024/01/04 08:03:59;;;;;;;6.82;4.38;;;2.00;63.80;;;;;;5019267;28;20765;-78
2024/01/04 08:06:25;;;;;;;7.72;4.38;;;2.00;64.20;;;;;;5017248;28;20045;-79
2024/01/04 08:08:52;;;;;;;8.70;4.07;;;2.00;64.30;;;;;;5033142;28;20412;-79
2024/01/04 08:11:18;;;;;;;8.32;4.40;;;2.00;64.50;;;;;;5024980;28;20409;-78
2024/01/04 08:13:45;;;;;;;7.50;4.20;;;2.10;64.60;;;;;;5032249;28;20041;-78
2024/01/04 08:16:11;;;;;;;8.57;4.75;;;2.10;64.50;;;;;;5018279;28;20160;-79
2024/01/04 08:18:37;;;;;;;8.48;4.32;;;2.10;64.60;;;;;;5018393;28;20388;-78
2024/01/04 08:21:04;;;;;;;6.90;4.28;;;2.10;64.90;;;;;;5017554;28;20052;-79
2024/01/04 08:23:31;;;;;;;8.43;4.68;;;2.10;64.70;;;;;;5019688;28;20030;-79
2024/01/04 08:25:57;;;;;;;7.60;4.35;;;2.20;64.10;;;;;;5019496;28;20030;-78
2024/01/04 08:28:23;;;;;;;6.93;4.00;;;2.20;64.00;;;;;;4990102;28;20076;-79
2024/01/04 08:30:49;;;;;;;9.30;4.20;;;2.20;64.00;;;;;;5017316;28;20033;-79
2024/01/04 08:33:15;;;;;;;6.82;4.20;;;2.20;64.00;;;;;;5002111;28;20550;-79
2024/01/04 08:35:41;;;;;;;8.65;4.65;;;2.20;64.00;;;;;;5004610;28;20480;-79
2024/01/04 08:38:07;;;;;;;10.45;4.63;;;2.30;64.70;;;;;;5018074;28;20034;-79
2024/01/04 08:40:38;;;;;;;7.75;4.30;;;2.30;64.10;;;;;;5030814;28;20030;-77
2024/01/04 08:43:06;;;;;;;8.45;4.35;;;2.40;64.70;;;;;;5007684;28;20037;-79
2024/01/04 08:45:32;;;;;;;8.27;4.55;;;2.40;64.00;;;;;;5025521;28;20072;-78
2024/01/04 08:47:58;;;;;;;6.93;4.47;;;2.40;64.00;;;;;;5022558;28;20810;-77
2024/01/04 08:50:24;;;;;;;6.78;4.18;;;2.50;64.00;;;;;;5018664;28;20030;-81
2024/01/04 08:52:51;;;;;;;9.40;4.88;;;2.50;63.90;;;;;;5027408;28;20046;-85
2024/01/04 08:55:19;;;;;;;7.28;3.80;;;2.50;64.10;;;;;;5012058;28;20531;-84
2024/01/04 08:57:46;;;;;;;5.93;4.50;;;2.50;64.10;;;;;;5027222;28;20042;-82
2024/01/04 09:00:14;;;;;;;6.32;4.05;;;2.50;64.10;;;;;;5011100;28;20041;-82
2024/01/04 09:02:45;;;;;;;8.23;4.18;;;2.50;64.10;;;;;;5009887;28;20029;-82
2024/01/04 09:05:14;;;;;;;5.95;3.65;;;2.50;64.10;;;;;;4998431;28;20056;-84
2024/01/04 09:07:40;;;;;;;12.02;4.55;;;2.60;64.10;;;;;;5035964;28;20534;-82
2024/01/04 09:10:10;;;;;;;10.98;4.70;;;2.60;64.00;;;;;;5030845;28;20056;-82
2024/01/04 09:12:38;;;;;;;7.20;4.78;;;2.60;64.00;;;;;;5045294;28;20048;-84
2024/01/04 09:15:05;;;;;;;10.98;4.35;;;2.60;64.50;;;;;;5040973;28;20044;-82
2024/01/04 09:17:31;;;;;;;7.00;4.50;;;2.60;63.90;;;;;;5010549;28;20437;-82
2024/01/04 09:19:58;;;;;;;10.60;4.65;;;2.60;63.70;;;;;;5027791;28;20033;-83
2024/01/04 09:22:24;;;;;;;7.32;4.60;;;2.60;63.60;;;;;;5004234;28;20029;-81
2024/01/04 09:24:50;;;;;;;7.57;4.40;;;2.60;63.60;;;;;;5045278;28;20449;-85
2024/01/04 09:27:16;;;;;;;7.50;4.55;;;2.60;63.60;;;;;;5030751;28;22832;-87
2024/01/04 09:29:44;;;;;;;8.38;4.32;;;2.60;63.70;;;;;;5043223;28;20071;-83
2024/01/04 09:32:10;;;;;;;9.32;4.43;;;2.70;63.70;;;;;;5043929;28;20076;-82
2024/01/04 09:34:36;;;;;;;8.52;4.07;;;2.70;63.50;;;;;;5042685;28;20032;-81
2024/01/04 09:37:02;;;;;;;5.70;3.72;;;2.70;63.30;;;;;;5027831;28;20033;-83
2024/01/04 09:39:28;;;;;;;7.55;4.05;;;2.70;62.90;;;;;;5042953;28;20106;-83
2024/01/04 09:41:56;;;;;;;8.52;3.75;;;2.70;62.70;;;;;;5045162;28;20036;-86
2024/01/04 09:44:24;;;;;;;8.38;4.60;;;2.70;62.60;;;;;;4995929;28;20038;-87
2024/01/04 09:46:55;;;;;;;6.03;3.78;;;2.70;62.30;;;;;;4997603;28;20423;-85
2024/01/04 09:49:22;;;;;;;9.75;4.18;;;2.70;62.00;;;;;;5032366;28;20060;-88
2024/01/04 09:51:48;;;;;;;11.35;4.63;;;2.60;61.60;;;;;;5015767;28;20499;-91
2024/01/04 09:54:19;;;;;;;8.70;4.65;;;2.70;62.20;;;;;;5034791;28;20059;-89
2024/01/04 09:56:47;;;;;;;7.47;4.18;;;2.70;61.50;;;;;;5031031;28;20033;-87
2024/01/04 09:59:14;;;;;;;8.75;4.50;;;2.60;61.50;;;;;;5032512;28;20087;-88
2024/01/04 10:01:40;;;;;;;8.05;4.40;;;2.60;61.60;;;;;;5002173;28;20831;-83
2024/01/04 10:04:14;;;;;;;7.85;4.68;;;2.60;61.90;;;;;;5007670;28;20092;-81
2024/01/04 10:06:41;;;;;;;10.90;4.25;;;2.60;62.10;;;;;;5033275;28;20128;-82
2024/01/04 10:09:38;;;;;;;9.88;4.70;;;2.60;62.30;;;;;;5038608;28;20032;-86
2024/01/04 10:12:08;;;;;;;8.07;4.65;;;2.60;62.70;;;;;;4997333;28;20060;-84
2024/01/04 10:14:35;;;;;;;10.52;3.95;;;2.60;62.90;;;;;;4994264;28;20057;-83
2024/01/04 10:17:04;;;;;;;6.15;3.63;;;2.60;63.10;;;;;;5040873;28;20041;-82
2024/01/04 10:19:31;;;;;;;7.32;4.10;;;2.70;63.30;;;;;;5011419;28;20038;-82
2024/01/04 10:22:05;;;;;;;8.38;4.22;;;2.60;63.20;;;;;;4998765;28;20028;-82
2024/01/04 10:24:37;;;;;;;6.28;3.60;;;2.60;63.20;;;;;;5043407;28;20515;-83
2024/01/04 10:27:05;;;;;;;8.25;4.15;;;2.70;63.20;;;;;;5042079;28;20106;-83
2024/01/04 10:29:35;;;;;;;6.75;3.90;;;2.70;63.60;;;;;;5028769;28;20252;-85
2024/01/04 10:32:02;;;;;;;7.22;3.70;;;2.60;62.80;;;;;;5046851;28;20534;-80
2024/01/04 10:34:29;;;;;;;6.97;4.00;;;2.60;62.80;;;;;;5032231;28;20033;-82
2024/01/04 10:37:06;;;;;;;6.90;4.18;;;2.70;62.90;;;;;;5024503;28;20086;-79
2024/01/04 10:39:32;;;;;;;6.45;3.83;;;2.70;63.10;;;;;;5031780;28;21604;-79
2024/01/04 10:42:02;;;;;;;8.45;3.80;;;2.60;63.10;;;;;;5043622;28;20025;-81
2024/01/04 10:44:29;;;;;;;8.23;4.05;;;2.60;63.10;;;;;;5010132;28;20025;-86
2024/01/04 10:46:56;;;;;;;6.40;3.67;;;2.60;64.30;;;;;;5003580;28;20072;-79
2024/01/04 10:49:24;;;;;;;9.07;3.92;;;2.70;68.60;;;;;;5043847;28;20037;-78
2024/01/04 10:51:58;;;;;;;6.18;3.97;;;2.70;67.90;;;;;;5043023;28;20034;-78
2024/01/04 10:54:34;;;;;;;7.27;4.00;;;2.70;66.90;;;;;;5041600;28;20037;-78
2024/01/04 10:57:02;;;;;;;9.60;4.10;;;2.80;66.00;;;;;;5038210;28;20295;-78
2024/01/04 10:59:29;;;;;;;9.02;4.57;;;2.80;65.50;;;;;;5041699;28;20501;-78
2024/01/04 11:01:58;;;;;;;8.50;3.67;;;2.80;65.10;;;;;;5038030;28;20045;-78
2024/01/04 11:04:24;;;;;;;8.68;4.22;;;2.80;64.90;;;;;;5026394;28;20041;-78
2024/01/04 11:06:52;;;;;;;7.10;4.18;;;2.80;64.80;;;;;;5039424;28;20034;-81
2024/01/04 11:09:23;;;;;;;6.05;4.00;;;2.80;64.80;;;;;;5039444;28;20396;-80
2024/01/04 11:11:54;;;;;;;5.95;3.75;;;2.80;64.60;;;;;;5021339;28;20064;-78
2024/01/04 11:14:24;;;;;;;9.48;5.05;;;2.80;64.80;;;;;;5043169;28;20041;-81
2024/01/04 11:17:29;;;;;;;8.00;4.45;;;2.80;64.70;;;;;;5025929;28;20030;-79
2024/01/04 11:19:56;;;;;;;7.30;4.25;;;2.80;64.80;;;;;;5015264;28;20037;-90
2024/01/04 11:22:45;;;;;;;6.70;3.75;;;2.80;65.80;;;;;;5002921;28;20029;-90
2024/01/04 11:25:20;;;;;;;7.90;3.97;;;2.90;69.70;;;;;;5007321;28;20037;-90
2024/01/04 11:27:47;;;;;;;8.15;3.97;;;2.90;69.30;;;;;;5047115;28;20045;-92
2024/01/04 11:30:14;;;;;;;6.72;3.92;;;2.90;68.50;;;;;;5030818;28;20037;-78
2024/01/04 11:32:44;;;;;;;5.72;3.30;;;2.90;69.00;;;;;;5047487;28;20129;-78
2024/01/04 11:35:13;;;;;;;6.95;3.13;;;3.10;86.30;;;;;;5014573;28;20470;-77
2024/01/04 11:37:40;;;;;;;9.40;3.83;;;3.40;90.10;;;;;;5015844;28;20042;-79
2024/01/04 11:40:07;;;;;;;7.13;3.53;;;3.60;90.80;;;;;;5053359;28;20049;-78
2024/01/04 11:42:41;;;;;;;5.28;2.65;;;3.80;90.80;;;;;;5046836;28;20066;-79
2024/01/04 11:45:14;;;;;;;7.45;4.32;;;4.00;85.80;;;;;;5044264;28;20042;-82
2024/01/04 11:47:46;;;;;;;5.75;3.67;;;4.00;79.10;;;;;;5041119;28;20383;-79
2024/01/04 11:50:23;;;;;;;9.40;4.15;;;4.00;75.20;;;;;;5059435;28;20076;-79
2024/01/04 11:52:50;;;;;;;7.20;4.15;;;4.00;72.70;;;;;;5046532;28;20115;-80
2024/01/04 11:55:28;;;;;;;7.25;4.38;;;4.00;71.00;;;;;;5030495;28;20041;-80
2024/01/04 11:58:33;;;;;;;7.68;4.57;;;3.90;69.50;;;;;;5017372;28;20041;-83
2024/01/04 12:01:02;;;;;;;7.22;4.15;;;3.90;68.10;;;;;;4989311;28;20389;-81
2024/01/04 12:03:29;;;;;;;9.13;4.60;;;3.80;66.80;;;;;;4999431;28;20033;-81
2024/01/04 12:05:56;;;;;;;8.02;4.72;;;3.80;66.20;;;;;;5028791;28;20091;-81
2024/01/04 12:08:32;;;;;;;7.88;4.50;;;3.70;65.30;;;;;;5014822;28;20558;-80
2024/01/04 12:11:05;;;;;;;7.55;4.60;;;3.70;65.10;;;;;;5022659;28;20037;-83
2024/01/04 12:13:31;;;;;;;7.18;4.65;;;3.60;64.40;;;;;;5042679;28;20178;-80
2024/01/04 12:15:57;;;;;;;7.60;5.47;;;3.60;64.80;;;;;;5026864;28;20040;-82
2024/01/04 12:18:23;;;;;;;10.63;5.85;;;3.50;64.80;;;;;;5024373;28;20033;-81
2024/01/04 12:20:50;;;;;;;8.88;5.85;;;3.50;64.40;;;;;;5037754;28;20025;-80
2024/01/04 12:23:16;;;;;;;10.27;6.95;;;3.50;64.60;;;;;;5008524;28;20060;-79
2024/01/04 12:25:43;;;;;;;12.10;6.95;;;3.50;64.60;;;;;;5039662;28;20117;-80
2024/01/04 12:28:10;;;;;;;10.63;6.75;;;3.50;64.60;;;;;;5021575;28;20776;-81
2024/01/04 12:30:40;;;;;;;13.23;8.05;;;3.40;64.20;;;;;;5040060;28;20132;-82
2024/01/04 12:33:09;;;;;;;11.98;7.50;;;3.40;64.10;;;;;;5025262;28;20067;-84
2024/01/04 12:35:35;;;;;;;13.02;7.72;;;3.40;64.30;;;;;;5029819;28;20043;-81
2024/01/04 12:38:06;;;;;;;16.73;7.10;;;3.30;63.80;;;;;;5024819;28;20061;-81
2024/01/04 12:40:40;;;;;;;11.90;7.68;;;3.40;63.90;;;;;;5042838;28;20052;-82
2024/01/04 12:43:08;;;;;;;11.65;6.90;;;3.30;64.20;;;;;;5043765;28;20071;-79
2024/01/04 12:45:35;;;;;;;12.52;7.20;;;3.30;64.70;;;;;;5042559;28;20041;-79
2024/01/04 12:48:05;;;;;;;13.45;7.40;;;3.30;65.00;;;;;;5008197;28;20032;-79
2024/01/04 12:50:34;;;;;;;11.07;6.97;;;3.20;65.30;;;;;;5031579;28;20033;-89
2024/01/04 12:53:01;;;;;;;14.25;6.88;;;3.20;65.40;;;;;;5015086;28;20167;-86
2024/01/04 12:55:27;;;;;;;15.38;6.80;;;3.20;66.00;;;;;;5045779;28;20036;-89